createdAt,value
2023-09-27T00:01:28.322Z,15.49
2023-09-27T00:04:00.096Z,15.49
2023-09-27T00:06:31.961Z,15.48
2023-09-27T00:09:05.480Z,15.49
2023-09-27T00:11:37.248Z,15.47
2023-09-27T00:14:09.129Z,15.46
2023-09-27T00:16:41.089Z,15.44
2023-09-27T00:19:13.364Z,15.42
2023-09-27T00:21:45.107Z,15.39
2023-09-27T00:24:17.179Z,15.41
2023-09-27T00:26:48.941Z,15.42
2023-09-27T00:29:21.220Z,15.40
2023-09-27T00:31:53.271Z,15.40
2023-09-27T00:34:25.401Z,15.39
2023-09-27T00:36:57.119Z,15.38
2023-09-27T00:39:29.045Z,15.35
2023-09-27T00:42:00.841Z,15.30
2023-09-27T00:44:32.664Z,15.23
2023-09-27T00:47:06.150Z,15.19
2023-09-27T00:49:38.573Z,15.15
2023-09-27T00:52:10.550Z,15.16
2023-09-27T00:54:42.946Z,15.14
2023-09-27T00:57:14.969Z,15.10
2023-09-27T00:59:47.438Z,15.05
2023-09-27T01:02:19.998Z,15.03
2023-09-27T01:04:52.079Z,15.04
2023-09-27T01:07:24.255Z,15.05
2023-09-27T01:09:56.729Z,15.05
2023-09-27T01:12:30.779Z,15.00
2023-09-27T01:15:03.388Z,14.93
2023-09-27T01:17:35.387Z,14.88
2023-09-27T01:20:08.855Z,14.83
2023-09-27T01:22:41.443Z,14.81
2023-09-27T01:25:17.319Z,14.79
2023-09-27T01:27:50.717Z,14.79
2023-09-27T01:30:22.660Z,14.77
2023-09-27T01:32:54.828Z,14.76
2023-09-27T01:35:26.715Z,14.75
2023-09-27T01:37:58.674Z,14.75
2023-09-27T01:40:31.778Z,14.71
2023-09-27T01:43:05.394Z,14.71
2023-09-27T01:45:37.969Z,14.70
2023-09-27T01:48:10.419Z,14.69
2023-09-27T01:50:42.854Z,14.65
2023-09-27T01:53:14.964Z,14.63
2023-09-27T01:55:48.716Z,14.60
2023-09-27T01:58:20.536Z,14.58
2023-09-27T02:00:52.354Z,14.55
2023-09-27T02:03:25.365Z,14.52
2023-09-27T02:05:59.287Z,14.49
2023-09-27T02:08:31.458Z,14.47
2023-09-27T02:11:04.093Z,14.45
2023-09-27T02:13:35.953Z,14.43
2023-09-27T02:16:08.099Z,14.42
2023-09-27T02:18:40.361Z,14.42
2023-09-27T02:21:12.418Z,14.39
2023-09-27T02:23:44.240Z,14.38
2023-09-27T02:26:17.092Z,14.34
2023-09-27T02:28:49.301Z,14.30
2023-09-27T02:31:21.098Z,14.28
2023-09-27T02:33:53.950Z,14.26
2023-09-27T02:36:25.720Z,14.24
2023-09-27T02:38:57.516Z,14.19
2023-09-27T02:41:30.806Z,14.15
2023-09-27T02:44:02.639Z,14.12
2023-09-27T02:46:34.754Z,14.12
2023-09-27T02:49:07.012Z,14.10
2023-09-27T02:51:38.985Z,14.07
2023-09-27T02:54:11.845Z,14.06
2023-09-27T02:56:44.719Z,14.07
2023-09-27T02:59:16.983Z,14.06
2023-09-27T03:01:49.547Z,14.05
2023-09-27T03:04:22.168Z,14.03
2023-09-27T03:06:54.177Z,14.02
2023-09-27T03:09:26.271Z,13.99
2023-09-27T03:11:59.191Z,13.97
2023-09-27T03:14:31.324Z,13.93
2023-09-27T03:17:04.705Z,13.93
2023-09-27T03:19:36.624Z,13.93
2023-09-27T03:22:08.606Z,13.97
2023-09-27T03:24:40.497Z,13.97
2023-09-27T03:27:12.278Z,13.95
2023-09-27T03:29:44.318Z,13.91
2023-09-27T03:32:16.847Z,13.89
2023-09-27T03:34:48.771Z,13.86
2023-09-27T03:37:20.620Z,13.84
2023-09-27T03:39:53.821Z,13.82
2023-09-27T03:42:25.717Z,13.78
2023-09-27T03:44:57.549Z,13.73
2023-09-27T03:47:31.158Z,13.71
2023-09-27T03:50:04.152Z,13.71
2023-09-27T03:52:36.529Z,13.70
2023-09-27T03:55:10.152Z,13.68
2023-09-27T03:57:43.428Z,13.66
2023-09-27T04:00:18.887Z,13.64
2023-09-27T04:02:51.906Z,13.64
2023-09-27T04:05:27.602Z,13.64
2023-09-27T04:08:01.201Z,13.62
2023-09-27T04:10:35.131Z,13.58
2023-09-27T04:13:08.050Z,13.55
2023-09-27T04:15:40.663Z,13.55
2023-09-27T04:18:12.554Z,13.54
2023-09-27T04:20:44.864Z,13.52
2023-09-27T04:23:16.965Z,13.50
2023-09-27T04:25:48.846Z,13.49
2023-09-27T04:28:20.641Z,13.49
2023-09-27T04:30:53.084Z,13.51
2023-09-27T04:33:25.113Z,13.53
2023-09-27T04:35:57.485Z,13.53
2023-09-27T04:38:29.448Z,13.55
2023-09-27T04:41:02.067Z,13.54
2023-09-27T04:43:33.982Z,13.51
2023-09-27T04:46:06.221Z,13.49
2023-09-27T04:48:37.959Z,13.46
2023-09-27T04:51:09.949Z,13.47
2023-09-27T04:53:42.684Z,13.46
2023-09-27T04:56:14.520Z,13.42
2023-09-27T04:58:46.461Z,13.39
2023-09-27T05:01:18.561Z,13.37
2023-09-27T05:03:50.705Z,13.37
2023-09-27T05:06:22.896Z,13.35
2023-09-27T05:08:54.989Z,13.34
2023-09-27T05:11:26.824Z,13.35
2023-09-27T05:13:58.551Z,13.34
2023-09-27T05:16:31.690Z,13.32
2023-09-27T05:19:03.607Z,13.31
2023-09-27T05:21:36.137Z,13.33
2023-09-27T05:24:09.460Z,13.36
2023-09-27T05:26:41.185Z,13.40
2023-09-27T05:29:15.142Z,13.44
2023-09-27T05:31:47.975Z,13.47
2023-09-27T05:34:19.710Z,13.49
2023-09-27T05:36:51.595Z,13.51
2023-09-27T05:39:23.409Z,13.53
2023-09-27T05:41:55.449Z,13.56
2023-09-27T05:44:27.475Z,13.60
2023-09-27T05:47:00.205Z,13.64
2023-09-27T05:49:32.654Z,13.68
2023-09-27T05:52:04.803Z,13.72
2023-09-27T05:54:36.662Z,13.77
2023-09-27T05:57:08.484Z,13.82
2023-09-27T05:59:41.630Z,13.88
2023-09-27T06:02:17.825Z,13.97
2023-09-27T06:04:50.504Z,14.05
2023-09-27T06:07:24.193Z,14.15
2023-09-27T06:09:55.960Z,14.24
2023-09-27T06:12:27.771Z,14.32
2023-09-27T06:15:00.010Z,14.43
2023-09-27T06:17:32.327Z,14.55
2023-09-27T06:20:09.030Z,14.67
2023-09-27T06:22:41.679Z,14.80
2023-09-27T06:25:14.971Z,15.01
2023-09-27T06:27:49.182Z,15.27
2023-09-27T06:30:21.735Z,15.54
2023-09-27T06:32:53.854Z,15.91
2023-09-27T06:35:26.971Z,16.25
2023-09-27T06:38:01.701Z,16.52
2023-09-27T06:40:33.868Z,16.79
2023-09-27T06:43:07.002Z,17.03
2023-09-27T06:45:41.538Z,17.27
2023-09-27T06:48:13.469Z,17.50
2023-09-27T06:50:48.068Z,17.72
2023-09-27T06:53:23.719Z,17.95
2023-09-27T06:55:58.281Z,18.15
2023-09-27T06:58:31.164Z,18.34
2023-09-27T07:01:03.176Z,18.52
2023-09-27T07:03:38.115Z,18.67
2023-09-27T07:06:10.182Z,18.83
2023-09-27T07:08:44.842Z,18.98
2023-09-27T07:11:17.046Z,19.08
2023-09-27T07:13:49.060Z,19.15
2023-09-27T07:16:28.051Z,19.27
2023-09-27T07:19:02.092Z,19.45
2023-09-27T07:21:34.017Z,19.79
2023-09-27T07:24:06.685Z,20.24
2023-09-27T07:26:39.280Z,20.47
2023-09-27T07:29:13.080Z,20.55
2023-09-27T07:31:44.866Z,20.64
2023-09-27T07:34:16.826Z,20.74
2023-09-27T07:36:48.652Z,20.86
2023-09-27T07:39:21.594Z,21.01
2023-09-27T07:41:54.046Z,21.21
2023-09-27T07:44:27.599Z,21.49
2023-09-27T07:46:59.944Z,22.06
2023-09-27T07:49:32.670Z,22.42
2023-09-27T07:52:05.755Z,22.85
2023-09-27T07:54:38.603Z,23.69
2023-09-27T07:57:10.409Z,24.70
2023-09-27T07:59:42.376Z,25.05
2023-09-27T08:02:14.764Z,24.92
2023-09-27T08:04:46.610Z,24.78
2023-09-27T08:07:20.095Z,24.83
2023-09-27T08:09:54.245Z,25.10
2023-09-27T08:12:29.319Z,26.10
2023-09-27T08:15:01.444Z,27.48
2023-09-27T08:17:34.053Z,28.61
2023-09-27T08:20:10.775Z,29.02
2023-09-27T08:22:43.171Z,28.45
2023-09-27T08:25:17.009Z,28.77
2023-09-27T08:27:51.871Z,29.02
2023-09-27T08:30:24.380Z,28.88
2023-09-27T08:32:56.225Z,28.95
2023-09-27T08:35:28.604Z,29.08
2023-09-27T08:38:00.951Z,28.90
2023-09-27T08:40:33.312Z,28.37
2023-09-27T08:43:06.238Z,28.18
2023-09-27T08:45:40.191Z,28.22
2023-09-27T08:48:19.541Z,28.19
2023-09-27T08:50:52.630Z,27.92
2023-09-27T08:53:25.554Z,27.87
2023-09-27T08:55:58.813Z,27.98
2023-09-27T08:58:30.954Z,28.33
2023-09-27T09:01:03.609Z,29.02
2023-09-27T09:03:36.323Z,30.18
2023-09-27T09:06:12.364Z,31.17
2023-09-27T09:08:45.060Z,31.46
2023-09-27T09:11:19.726Z,32.01
2023-09-27T09:14:05.736Z,32.32
2023-09-27T09:16:41.549Z,32.55
2023-09-27T09:19:37.520Z,32.77
2023-09-27T09:22:15.689Z,32.99
2023-09-27T09:24:47.533Z,33.43
2023-09-27T09:27:19.697Z,34.77
2023-09-27T09:29:55.278Z,36.35
2023-09-27T09:32:30.602Z,36.84
2023-09-27T09:35:03.667Z,36.68
2023-09-27T09:37:36.495Z,35.66
2023-09-27T09:40:16.155Z,34.42
2023-09-27T09:42:52.351Z,33.51
2023-09-27T09:45:25.276Z,32.78
2023-09-27T09:47:58.839Z,31.98
2023-09-27T09:50:31.196Z,31.47
2023-09-27T09:53:03.262Z,30.96
2023-09-27T09:56:05.102Z,30.52
2023-09-27T09:58:36.138Z,30.16
2023-09-27T10:01:07.609Z,30.04
2023-09-27T10:03:44.492Z,29.83
2023-09-27T10:06:20.803Z,29.55
2023-09-27T10:08:56.897Z,29.26
2023-09-27T10:11:29.437Z,29.09
2023-09-27T10:14:03.930Z,28.88
2023-09-27T10:16:36.272Z,28.62
2023-09-27T10:19:08.479Z,28.35
2023-09-27T10:22:07.115Z,28.13
2023-09-27T10:24:43.529Z,27.90
2023-09-27T10:27:15.880Z,27.68
2023-09-27T10:30:01.467Z,27.53
2023-09-27T10:32:33.483Z,27.40
2023-09-27T10:35:23.191Z,27.29
2023-09-27T10:38:07.716Z,27.13
2023-09-27T10:40:47.282Z,27.00
2023-09-27T10:43:42.234Z,26.89
2023-09-27T10:46:15.035Z,26.76
2023-09-27T10:48:56.200Z,26.70
2023-09-27T10:51:28.374Z,26.65
2023-09-27T10:54:00.247Z,26.59
2023-09-27T10:56:32.087Z,26.53
2023-09-27T10:59:04.508Z,26.47
2023-09-27T11:01:36.970Z,26.41
2023-09-27T11:04:13.418Z,26.34
2023-09-27T11:06:47.974Z,26.25
2023-09-27T11:09:21.406Z,26.18
2023-09-27T11:11:55.383Z,26.09
2023-09-27T11:14:34.652Z,26.01
2023-09-27T11:17:23.486Z,25.94
2023-09-27T11:19:56.095Z,25.89
2023-09-27T11:22:31.569Z,25.86
2023-09-27T11:25:04.105Z,25.79
2023-09-27T11:27:35.943Z,25.73
2023-09-27T11:30:11.053Z,25.69
2023-09-27T11:32:53.645Z,25.68
2023-09-27T11:35:27.777Z,25.65
2023-09-27T11:38:14.495Z,25.64
2023-09-27T11:40:49.814Z,25.62
2023-09-27T11:43:22.267Z,25.62
2023-09-27T11:45:54.021Z,25.58
2023-09-27T11:48:36.250Z,25.54
2023-09-27T11:51:08.425Z,25.53
2023-09-27T11:53:40.426Z,25.55
2023-09-27T11:56:12.521Z,25.63
2023-09-27T11:58:44.432Z,25.67
2023-09-27T12:01:16.746Z,25.63
2023-09-27T12:03:50.845Z,25.58
2023-09-27T12:06:26.422Z,25.57
2023-09-27T12:08:59.679Z,25.55
2023-09-27T12:11:33.040Z,25.53
2023-09-27T12:14:06.333Z,25.53
2023-09-27T12:16:38.341Z,25.50
2023-09-27T12:19:10.751Z,25.47
2023-09-27T12:21:42.719Z,25.45
2023-09-27T12:24:14.490Z,25.47
2023-09-27T12:26:46.276Z,25.51
2023-09-27T12:29:18.027Z,25.50
2023-09-27T12:31:49.900Z,25.47
2023-09-27T12:34:21.844Z,25.43
2023-09-27T12:36:54.019Z,25.41
2023-09-27T12:39:25.830Z,25.40
2023-09-27T12:42:01.251Z,25.41
2023-09-27T12:44:34.099Z,25.43
2023-09-27T12:47:06.041Z,25.42
2023-09-27T12:49:37.890Z,25.43
2023-09-27T12:52:09.963Z,25.44
2023-09-27T12:54:41.793Z,25.45
2023-09-27T12:57:14.055Z,25.43
2023-09-27T12:59:45.828Z,25.42
2023-09-27T13:02:17.800Z,25.40
2023-09-27T13:04:50.181Z,25.47
2023-09-27T13:07:22.027Z,25.49
2023-09-27T13:09:55.201Z,25.51
2023-09-27T13:12:27.124Z,25.55
2023-09-27T13:14:58.980Z,25.57
2023-09-27T13:17:31.823Z,25.65
2023-09-27T13:20:08.138Z,25.70
2023-09-27T13:22:41.015Z,25.84
2023-09-27T13:25:13.393Z,26.07
2023-09-27T13:27:45.900Z,26.25
2023-09-27T13:30:33.053Z,26.41
2023-09-27T13:33:07.746Z,26.62
2023-09-27T13:35:39.761Z,26.71
2023-09-27T13:38:12.613Z,26.73
2023-09-27T13:40:45.250Z,26.76
2023-09-27T13:43:17.202Z,26.78
2023-09-27T13:45:49.634Z,26.78
2023-09-27T13:48:21.595Z,26.83
2023-09-27T13:50:53.588Z,26.92
2023-09-27T13:53:25.691Z,27.02
2023-09-27T13:55:57.561Z,27.05
2023-09-27T13:58:29.355Z,27.08
2023-09-27T14:01:01.172Z,27.09
2023-09-27T14:03:33.295Z,27.10
2023-09-27T14:06:06.505Z,27.11
2023-09-27T14:08:38.385Z,27.21
2023-09-27T14:11:15.539Z,27.28
2023-09-27T14:13:48.510Z,27.26
2023-09-27T14:16:21.633Z,27.32
2023-09-27T14:18:54.200Z,27.34
2023-09-27T14:21:26.389Z,27.31
2023-09-27T14:23:58.228Z,27.33
2023-09-27T14:26:30.031Z,27.32
2023-09-27T14:29:01.799Z,27.18
2023-09-27T14:31:34.406Z,27.04
2023-09-27T14:34:06.358Z,26.91
2023-09-27T14:36:38.556Z,26.81
2023-09-27T14:39:14.401Z,26.70
2023-09-27T14:41:47.651Z,26.54
2023-09-27T14:44:19.390Z,26.43
2023-09-27T14:46:51.956Z,26.34
2023-09-27T14:49:24.764Z,26.24
2023-09-27T14:51:56.616Z,26.11
2023-09-27T14:54:28.361Z,26.01
2023-09-27T14:57:00.138Z,25.95
2023-09-27T14:59:31.914Z,25.88
2023-09-27T15:02:03.807Z,25.82
2023-09-27T15:04:35.715Z,25.72
2023-09-27T15:07:07.825Z,25.60
2023-09-27T15:09:39.556Z,25.49
2023-09-27T15:12:11.346Z,25.37
2023-09-27T15:14:43.099Z,25.28
2023-09-27T15:17:18.311Z,25.16
2023-09-27T15:19:50.554Z,25.03
2023-09-27T15:22:22.471Z,24.88
2023-09-27T15:24:54.226Z,24.71
2023-09-27T15:27:25.960Z,24.56
2023-09-27T15:29:57.886Z,24.41
2023-09-27T15:32:30.468Z,24.27
2023-09-27T15:35:02.394Z,24.14
2023-09-27T15:37:34.195Z,24.02
2023-09-27T15:40:07.383Z,23.92
2023-09-27T15:42:39.468Z,23.79
2023-09-27T15:45:13.093Z,23.65
2023-09-27T15:47:45.002Z,23.50
2023-09-27T15:50:16.931Z,23.36
2023-09-27T15:52:49.562Z,23.22
2023-09-27T15:55:21.516Z,23.11
2023-09-27T15:57:54.420Z,23.05
2023-09-27T16:00:27.185Z,22.98
2023-09-27T16:02:59.773Z,22.89
2023-09-27T16:05:32.687Z,22.78
2023-09-27T16:08:04.689Z,22.61
2023-09-27T16:10:39.636Z,22.47
2023-09-27T16:13:23.378Z,22.29
2023-09-27T16:15:55.693Z,22.14
2023-09-27T16:18:27.550Z,21.98
2023-09-27T16:20:59.420Z,21.83
2023-09-27T16:23:31.275Z,21.69
2023-09-27T16:26:03.001Z,21.53
2023-09-27T16:28:35.060Z,21.39
2023-09-27T16:31:11.974Z,21.31
2023-09-27T16:33:47.807Z,21.20
2023-09-27T16:36:22.727Z,21.13
2023-09-27T16:38:54.446Z,21.02
2023-09-27T16:41:26.802Z,20.87
2023-09-27T16:43:58.683Z,20.77
2023-09-27T16:46:30.663Z,20.70
2023-09-27T16:49:02.446Z,20.59
2023-09-27T16:51:34.225Z,20.46
2023-09-27T16:54:06.266Z,20.37
2023-09-27T16:56:37.981Z,20.28
2023-09-27T16:59:09.993Z,20.20
2023-09-27T17:01:41.891Z,20.12
2023-09-27T17:04:14.054Z,20.03
2023-09-27T17:06:46.466Z,19.94
2023-09-27T17:09:18.221Z,19.83
2023-09-27T17:11:49.971Z,19.74
2023-09-27T17:14:21.718Z,19.67
2023-09-27T17:16:53.483Z,19.61
2023-09-27T17:19:28.618Z,19.55
2023-09-27T17:22:01.038Z,19.47
2023-09-27T17:24:32.906Z,19.39
2023-09-27T17:27:04.713Z,19.28
2023-09-27T17:29:36.728Z,19.18
2023-09-27T17:32:08.611Z,19.08
2023-09-27T17:34:40.601Z,19.02
2023-09-27T17:37:12.397Z,18.96
2023-09-27T17:39:44.536Z,18.90
2023-09-27T17:42:16.535Z,18.85
2023-09-27T17:44:49.330Z,18.81
2023-09-27T17:47:21.074Z,18.76
2023-09-27T17:50:00.503Z,18.71
2023-09-27T17:52:32.455Z,18.65
2023-09-27T17:55:05.219Z,18.58
2023-09-27T17:57:37.260Z,18.53
2023-09-27T18:00:10.943Z,18.49
2023-09-27T18:02:42.820Z,18.47
2023-09-27T18:05:14.696Z,18.44
2023-09-27T18:07:46.617Z,18.39
2023-09-27T18:10:18.794Z,18.34
2023-09-27T18:12:50.818Z,18.28
2023-09-27T18:15:28.438Z,18.23
2023-09-27T18:18:00.573Z,18.19
2023-09-27T18:20:32.605Z,18.15
2023-09-27T18:23:04.701Z,18.09
2023-09-27T18:25:37.186Z,18.06
2023-09-27T18:28:09.372Z,17.99
2023-09-27T18:30:41.142Z,17.92
2023-09-27T18:33:13.238Z,17.86
2023-09-27T18:35:45.431Z,17.80
2023-09-27T18:38:17.209Z,17.74
2023-09-27T18:40:49.344Z,17.71
2023-09-27T18:43:21.341Z,17.68
2023-09-27T18:45:53.209Z,17.66
2023-09-27T18:48:25.167Z,17.61
2023-09-27T18:50:57.856Z,17.59
2023-09-27T18:53:29.698Z,17.55
2023-09-27T18:56:02.071Z,17.50
2023-09-27T18:58:34.455Z,17.45
2023-09-27T19:01:06.585Z,17.39
2023-09-27T19:03:38.586Z,17.35
2023-09-27T19:06:15.538Z,17.31
2023-09-27T19:08:47.599Z,17.29
2023-09-27T19:11:23.464Z,17.25
2023-09-27T19:13:57.554Z,17.18
2023-09-27T19:16:31.984Z,17.13
2023-09-27T19:19:04.136Z,17.09
2023-09-27T19:21:36.212Z,17.04
2023-09-27T19:24:13.946Z,17.00
2023-09-27T19:26:46.782Z,16.98
2023-09-27T19:29:24.280Z,16.96
2023-09-27T19:31:56.231Z,16.88
2023-09-27T19:34:29.167Z,16.78
2023-09-27T19:37:01.548Z,16.72
2023-09-27T19:39:34.274Z,16.70
2023-09-27T19:42:07.567Z,16.67
2023-09-27T19:44:40.156Z,16.63
2023-09-27T19:47:11.944Z,16.62
2023-09-27T19:49:43.816Z,16.59
2023-09-27T19:52:15.699Z,16.55
2023-09-27T19:54:47.560Z,16.52
2023-09-27T19:57:19.459Z,16.47
2023-09-27T19:59:51.422Z,16.42
2023-09-27T20:02:24.715Z,16.38
2023-09-27T20:04:56.736Z,16.37
2023-09-27T20:07:28.635Z,16.35
2023-09-27T20:10:00.445Z,16.35
2023-09-27T20:12:32.467Z,16.34
2023-09-27T20:15:04.817Z,16.34
2023-09-27T20:17:36.635Z,16.30
2023-09-27T20:20:11.014Z,16.27
2023-09-27T20:22:43.101Z,16.25
2023-09-27T20:25:15.088Z,16.21
2023-09-27T20:27:47.784Z,16.18
2023-09-27T20:30:19.984Z,16.17
2023-09-27T20:32:51.831Z,16.15
2023-09-27T20:35:23.582Z,16.12
2023-09-27T20:37:55.434Z,16.09
2023-09-27T20:40:27.648Z,16.05
2023-09-27T20:43:08.538Z,15.99
2023-09-27T20:45:40.870Z,15.95
2023-09-27T20:48:15.357Z,15.93
2023-09-27T20:50:49.504Z,15.88
2023-09-27T20:53:21.288Z,15.83
2023-09-27T20:55:55.015Z,15.80
2023-09-27T20:58:26.891Z,15.78
2023-09-27T21:01:01.548Z,15.75
2023-09-27T21:03:33.690Z,15.74
2023-09-27T21:06:06.088Z,15.71
2023-09-27T21:08:38.318Z,15.68
2023-09-27T21:11:10.123Z,15.65
2023-09-27T21:13:42.017Z,15.66
2023-09-27T21:16:14.254Z,15.64
2023-09-27T21:18:46.093Z,15.61
2023-09-27T21:21:17.945Z,15.58
2023-09-27T21:23:50.067Z,15.55
2023-09-27T21:26:22.185Z,15.52
2023-09-27T21:28:54.126Z,15.50
2023-09-27T21:31:25.972Z,15.47
2023-09-27T21:33:57.852Z,15.46
2023-09-27T21:36:29.939Z,15.43
2023-09-27T21:39:01.690Z,15.42
2023-09-27T21:41:34.497Z,15.40
2023-09-27T21:44:07.318Z,15.39
2023-09-27T21:46:39.152Z,15.35
2023-09-27T21:49:10.986Z,15.31
2023-09-27T21:51:42.741Z,15.28
2023-09-27T21:54:14.911Z,15.26
2023-09-27T21:56:47.179Z,15.25
2023-09-27T21:59:19.046Z,15.24
2023-09-27T22:01:51.150Z,15.21
2023-09-27T22:04:22.982Z,15.19
2023-09-27T22:06:54.701Z,15.21
2023-09-27T22:09:27.917Z,15.22
2023-09-27T22:11:59.830Z,15.23
2023-09-27T22:14:31.783Z,15.21
2023-09-27T22:17:09.394Z,15.20
2023-09-27T22:19:41.511Z,15.20
2023-09-27T22:22:21.433Z,15.18
2023-09-27T22:24:53.832Z,15.17
2023-09-27T22:27:27.906Z,15.18
2023-09-27T22:30:00.283Z,15.16
2023-09-27T22:32:32.696Z,15.13
2023-09-27T22:35:20.734Z,15.10
2023-09-27T22:37:53.495Z,15.07
2023-09-27T22:40:25.910Z,15.07
2023-09-27T22:42:57.713Z,15.06
2023-09-27T22:45:36.484Z,15.04
2023-09-27T22:48:14.200Z,15.03
2023-09-27T22:50:48.896Z,15.02
2023-09-27T22:53:22.471Z,15.02
2023-09-27T22:55:59.322Z,15.01
2023-09-27T22:58:34.022Z,15.02
2023-09-27T23:04:24.195Z,15.09
2023-09-27T23:07:02.572Z,15.07
2023-09-27T23:09:38.277Z,15.06
2023-09-27T23:12:19.673Z,15.05
2023-09-27T23:15:05.993Z,15.00
2023-09-27T23:18:01.148Z,14.97
2023-09-27T23:20:33.437Z,14.96
2023-09-27T23:23:13.355Z,14.92
2023-09-27T23:25:55.614Z,14.87
2023-09-27T23:28:40.778Z,14.84
2023-09-27T23:31:13.235Z,14.81
2023-09-27T23:33:45.634Z,14.79
2023-09-27T23:36:25.947Z,14.79
2023-09-27T23:38:59.120Z,14.79
2023-09-27T23:41:32.051Z,14.77
2023-09-27T23:44:06.239Z,14.76
2023-09-27T23:46:41.232Z,14.74
2023-09-27T23:49:17.407Z,14.71
2023-09-27T23:51:49.639Z,14.67
2023-09-27T23:54:22.301Z,14.65
2023-09-27T23:57:00.186Z,14.64
2023-09-27T23:59:32.956Z,14.62
